createdAt,value
2023-02-03T00:00:06.691Z,100818.91
2023-02-03T00:02:33.316Z,100814.50
2023-02-03T00:04:59.961Z,100825.13
2023-02-03T00:07:26.603Z,100837.66
2023-02-03T00:09:53.352Z,100828.69
2023-02-03T00:12:19.960Z,100824.19
2023-02-03T00:14:46.625Z,100832.28
2023-02-03T00:17:15.125Z,100844.78
2023-02-03T00:19:41.670Z,100846.59
2023-02-03T00:22:08.281Z,100848.47
2023-02-03T00:24:34.844Z,100845.75
2023-02-03T00:27:01.371Z,100863.59
2023-02-03T00:29:28.161Z,100859.00
2023-02-03T00:31:55.189Z,100863.41
2023-02-03T00:34:22.061Z,100869.81
2023-02-03T00:36:48.677Z,100870.53
2023-02-03T00:39:16.191Z,100877.69
2023-02-03T00:41:42.757Z,100868.78
2023-02-03T00:44:09.483Z,100882.13
2023-02-03T00:46:36.319Z,100881.22
2023-02-03T00:49:04.249Z,100881.25
2023-02-03T00:51:30.975Z,100893.00
2023-02-03T00:53:57.617Z,100888.31
2023-02-03T00:56:24.194Z,100889.25
2023-02-03T00:58:50.953Z,100893.63
2023-02-03T01:01:17.698Z,100891.91
2023-02-03T01:03:44.474Z,100883.91
2023-02-03T01:06:16.919Z,100882.88
2023-02-03T01:08:44.437Z,100887.28
2023-02-03T01:11:14.355Z,100883.69
2023-02-03T01:13:40.983Z,100885.47
2023-02-03T01:16:08.904Z,100891.75
2023-02-03T01:18:35.656Z,100909.56
2023-02-03T01:21:10.174Z,100899.47
2023-02-03T01:23:37.646Z,100900.59
2023-02-03T01:26:10.765Z,100902.38
2023-02-03T01:28:38.482Z,100898.69
2023-02-03T01:31:14.065Z,100899.47
2023-02-03T01:33:41.415Z,100900.41
2023-02-03T01:36:11.075Z,100891.38
2023-02-03T01:38:38.743Z,100892.41
2023-02-03T01:41:09.589Z,100904.78
2023-02-03T01:43:39.017Z,100896.91
2023-02-03T01:46:30.226Z,100903.16
2023-02-03T01:49:07.234Z,100896.06
2023-02-03T01:51:34.625Z,100898.69
2023-02-03T01:54:01.980Z,100916.59
2023-02-03T01:56:32.954Z,100905.13
2023-02-03T01:59:01.057Z,100919.47
2023-02-03T02:01:30.299Z,100915.81
2023-02-03T02:04:01.070Z,100917.59
2023-02-03T02:06:28.007Z,100924.63
2023-02-03T02:08:57.860Z,100925.63
2023-02-03T02:11:24.482Z,100921.88
2023-02-03T02:13:54.054Z,100939.75
2023-02-03T02:16:46.850Z,100932.66
2023-02-03T02:19:37.851Z,100934.44
2023-02-03T02:22:40.891Z,100935.47
2023-02-03T02:25:25.432Z,100943.56
2023-02-03T02:28:12.549Z,100943.63
2023-02-03T02:31:18.459Z,100953.53
2023-02-03T02:33:56.055Z,100953.53
2023-02-03T02:36:35.060Z,100951.03
2023-02-03T02:39:12.883Z,100943.22
2023-02-03T02:42:04.935Z,100952.06
2023-02-03T02:44:51.973Z,100960.13
2023-02-03T02:47:23.331Z,100954.78
2023-02-03T02:50:08.291Z,100954.81
2023-02-03T02:52:39.881Z,100962.06
2023-02-03T02:55:14.032Z,100967.41
2023-02-03T02:57:41.981Z,100969.41
2023-02-03T03:00:12.032Z,100973.06
2023-02-03T03:02:38.736Z,100976.66
2023-02-03T03:05:09.001Z,100959.72
2023-02-03T03:07:44.830Z,100969.50
2023-02-03T03:10:16.385Z,100969.50
2023-02-03T03:12:49.288Z,100971.31
2023-02-03T03:15:22.756Z,100961.47
2023-02-03T03:17:57.101Z,100975.69
2023-02-03T03:20:26.714Z,100965.81
2023-02-03T03:23:00.403Z,100965.03
2023-02-03T03:25:49.845Z,100957.88
2023-02-03T03:28:26.674Z,100963.28
2023-02-03T03:30:54.034Z,100965.81
2023-02-03T03:33:22.613Z,100962.31
2023-02-03T03:35:49.071Z,100962.28
2023-02-03T03:38:23.547Z,100967.66
2023-02-03T03:40:59.106Z,100968.66
2023-02-03T03:43:30.272Z,100970.31
2023-02-03T03:46:19.088Z,100971.25
2023-02-03T03:49:00.073Z,100983.84
2023-02-03T03:51:42.055Z,100985.63
2023-02-03T03:54:11.801Z,100987.31
2023-02-03T03:56:51.104Z,100995.41
2023-02-03T03:59:22.476Z,100993.56
2023-02-03T04:01:51.186Z,100992.81
2023-02-03T04:04:19.703Z,100990.19
2023-02-03T04:06:46.283Z,100990.28
2023-02-03T04:09:12.926Z,100988.44
2023-02-03T04:11:58.161Z,100980.66
2023-02-03T04:14:24.680Z,100976.19
2023-02-03T04:16:51.239Z,100980.84
2023-02-03T04:19:17.759Z,100986.19
2023-02-03T04:21:44.284Z,100976.63
2023-02-03T04:24:12.175Z,100977.59
2023-02-03T04:26:39.406Z,100975.03
2023-02-03T04:29:06.360Z,100975.13
2023-02-03T04:31:33.131Z,100977.34
2023-02-03T04:33:59.656Z,100989.09
2023-02-03T04:36:26.367Z,100994.72
2023-02-03T04:38:53.008Z,100990.41
2023-02-03T04:41:19.579Z,101009.22
2023-02-03T04:43:46.164Z,100996.84
2023-02-03T04:46:12.830Z,100988.88
2023-02-03T04:48:39.453Z,100980.03
2023-02-03T04:51:07.822Z,100992.59
2023-02-03T04:53:35.104Z,100997.09
2023-02-03T04:56:03.019Z,100996.31
2023-02-03T04:58:29.863Z,100984.59
2023-02-03T05:00:56.487Z,100979.31
2023-02-03T05:03:25.836Z,100986.56
2023-02-03T05:05:52.831Z,100998.06
2023-02-03T05:08:19.630Z,100991.66
2023-02-03T05:10:46.581Z,100987.16
2023-02-03T05:13:13.186Z,100990.75
2023-02-03T05:15:39.802Z,100998.78
2023-02-03T05:18:06.332Z,101009.50
2023-02-03T05:20:32.854Z,101008.59
2023-02-03T05:22:59.503Z,101017.50
2023-02-03T05:25:26.063Z,101025.63
2023-02-03T05:27:52.688Z,101040.75
2023-02-03T05:30:19.345Z,101045.31
2023-02-03T05:32:45.872Z,101052.44
2023-02-03T05:35:12.445Z,101064.84
2023-02-03T05:37:39.078Z,101066.56
2023-02-03T05:40:25.302Z,101061.25
2023-02-03T05:42:51.971Z,101078.13
2023-02-03T05:45:18.595Z,101077.25
2023-02-03T05:47:45.125Z,101090.53
2023-02-03T05:50:11.703Z,101089.66
2023-02-03T05:52:38.330Z,101085.22
2023-02-03T05:55:05.150Z,101082.56
2023-02-03T05:57:32.416Z,101073.59
2023-02-03T05:59:59.069Z,101083.38
2023-02-03T06:02:25.641Z,101081.56
2023-02-03T06:04:52.255Z,101070.88
2023-02-03T06:07:18.844Z,101069.09
2023-02-03T06:09:45.421Z,101068.13
2023-02-03T06:12:12.100Z,101065.44
2023-02-03T06:14:38.630Z,101059.22
2023-02-03T06:17:05.191Z,101052.13
2023-02-03T06:19:31.845Z,101051.13
2023-02-03T06:21:58.418Z,101049.41
2023-02-03T06:24:24.971Z,101054.72
2023-02-03T06:26:51.587Z,101065.31
2023-02-03T06:29:18.245Z,101059.09
2023-02-03T06:31:44.997Z,101058.09
2023-02-03T06:34:11.855Z,101059.66
2023-02-03T06:36:38.402Z,101065.81
2023-02-03T06:39:05.007Z,101068.47
2023-02-03T06:41:32.826Z,101068.38
2023-02-03T06:43:59.406Z,101071.91
2023-02-03T06:46:29.854Z,101069.94
2023-02-03T06:48:56.637Z,101071.63
2023-02-03T06:51:24.875Z,101077.75
2023-02-03T06:53:51.968Z,101067.88
2023-02-03T06:56:18.486Z,101073.22
2023-02-03T06:58:45.195Z,101083.00
2023-02-03T07:01:11.843Z,101080.13
2023-02-03T07:03:38.624Z,101085.41
2023-02-03T07:06:05.562Z,101091.59
2023-02-03T07:08:32.140Z,101087.00
2023-02-03T07:10:58.709Z,101092.41
2023-02-03T07:13:25.306Z,101093.31
2023-02-03T07:15:52.183Z,101092.28
2023-02-03T07:18:43.733Z,101097.69
2023-02-03T07:21:08.443Z,101098.56
2023-02-03T07:23:35.064Z,101107.41
2023-02-03T07:26:06.632Z,101099.34
2023-02-03T07:28:36.017Z,101116.19
2023-02-03T07:31:04.857Z,101111.53
2023-02-03T07:33:32.131Z,101101.63
2023-02-03T07:36:00.310Z,101104.31
2023-02-03T07:38:28.350Z,101104.19
2023-02-03T07:40:55.287Z,101101.41
2023-02-03T07:43:24.186Z,101101.28
2023-02-03T07:45:50.792Z,101088.63
2023-02-03T07:48:17.549Z,101095.78
2023-02-03T07:50:45.754Z,101096.50
2023-02-03T07:53:12.286Z,101091.91
2023-02-03T07:55:40.166Z,101093.59
2023-02-03T07:58:07.577Z,101093.81
2023-02-03T08:00:34.223Z,101096.22
2023-02-03T08:03:00.977Z,101094.03
2023-02-03T08:05:27.824Z,101097.56
2023-02-03T08:07:54.392Z,101094.63
2023-02-03T08:10:21.004Z,101096.22
2023-02-03T08:12:48.147Z,101084.38
2023-02-03T08:15:15.293Z,101079.66
2023-02-03T08:17:42.172Z,101084.03
2023-02-03T08:20:09.742Z,101078.81
2023-02-03T08:22:36.641Z,101075.97
2023-02-03T08:25:04.025Z,101079.66
2023-02-03T08:27:31.784Z,101092.66
2023-02-03T08:29:58.613Z,101083.53
2023-02-03T08:32:25.430Z,101090.00
2023-02-03T08:34:53.220Z,101091.53
2023-02-03T08:37:24.363Z,101099.38
2023-02-03T08:39:51.532Z,101101.03
2023-02-03T08:42:18.209Z,101099.59
2023-02-03T08:44:44.761Z,101106.44
2023-02-03T08:47:11.892Z,101104.25
2023-02-03T08:49:39.623Z,101109.63
2023-02-03T08:52:07.968Z,101107.50
2023-02-03T08:54:34.637Z,101123.28
2023-02-03T08:57:01.258Z,101118.19
2023-02-03T08:59:28.117Z,101112.44
2023-02-03T09:01:55.073Z,101115.09
2023-02-03T09:04:24.915Z,101113.13
2023-02-03T09:06:54.512Z,101104.91
2023-02-03T09:09:22.085Z,101114.50
2023-02-03T09:11:48.931Z,101108.13
2023-02-03T09:14:15.489Z,101099.38
2023-02-03T09:16:42.229Z,101106.34
2023-02-03T09:19:09.225Z,101106.19
2023-02-03T09:21:39.872Z,101100.09
2023-02-03T09:24:08.985Z,101107.94
2023-02-03T09:26:35.661Z,101114.03
2023-02-03T09:29:02.262Z,101111.44
2023-02-03T09:31:28.906Z,101105.03
2023-02-03T09:33:55.626Z,101101.28
2023-02-03T09:36:22.204Z,101097.72
2023-02-03T09:38:48.770Z,101095.44
2023-02-03T09:41:49.283Z,101096.97
2023-02-03T09:44:18.681Z,101096.72
2023-02-03T09:46:52.004Z,101091.41
2023-02-03T09:49:21.511Z,101093.22
2023-02-03T09:51:53.199Z,101091.25
2023-02-03T09:54:27.991Z,101080.13
2023-02-03T09:56:55.864Z,101069.41
2023-02-03T09:59:23.148Z,101073.75
2023-02-03T10:02:03.382Z,101060.16
2023-02-03T10:04:53.251Z,101060.75
2023-02-03T10:07:35.860Z,101058.53
2023-02-03T10:10:20.593Z,101060.38
2023-02-03T10:13:05.077Z,101041.00
2023-02-03T10:15:52.724Z,101035.25
2023-02-03T10:18:24.552Z,101029.03
2023-02-03T10:20:55.609Z,101029.81
2023-02-03T10:23:33.891Z,101010.81
2023-02-03T10:26:05.564Z,101006.00
2023-02-03T10:28:39.456Z,101012.59
2023-02-03T10:31:18.580Z,101004.78
2023-02-03T10:33:46.599Z,100991.41
2023-02-03T10:36:23.620Z,100992.72
2023-02-03T10:39:14.941Z,100985.44
2023-02-03T10:41:41.592Z,100991.88
2023-02-03T10:44:13.086Z,100987.56
2023-02-03T10:46:42.373Z,100973.44
2023-02-03T10:49:13.194Z,100973.50
2023-02-03T10:51:52.293Z,100957.88
2023-02-03T10:54:33.964Z,100949.47
2023-02-03T10:57:15.323Z,100934.16
2023-02-03T10:59:45.396Z,100924.47
2023-02-03T11:02:22.283Z,100921.13
2023-02-03T11:04:48.911Z,100914.94
2023-02-03T11:07:27.187Z,100918.97
2023-02-03T11:09:53.854Z,100922.97
2023-02-03T11:12:20.647Z,100914.94
2023-02-03T11:14:54.244Z,100919.50
2023-02-03T11:17:29.841Z,100907.81
2023-02-03T11:20:13.636Z,100905.91
2023-02-03T11:22:43.363Z,100914.22
2023-02-03T11:25:26.972Z,100919.63
2023-02-03T11:27:56.057Z,100908.75
2023-02-03T11:30:31.493Z,100913.53
2023-02-03T11:33:01.460Z,100910.44
2023-02-03T11:35:31.826Z,100902.44
2023-02-03T11:38:02.207Z,100904.25
2023-02-03T11:40:38.587Z,100902.53
2023-02-03T11:43:18.938Z,100901.84
2023-02-03T11:45:50.156Z,100895.78
2023-02-03T11:48:22.107Z,100900.34
2023-02-03T11:51:04.764Z,100895.13
2023-02-03T11:53:47.854Z,100884.25
2023-02-03T11:56:41.461Z,100887.56
2023-02-03T11:59:17.336Z,100874.00
2023-02-03T12:02:07.977Z,100867.41
2023-02-03T12:05:01.019Z,100866.22
2023-02-03T12:07:46.413Z,100855.09
2023-02-03T12:10:47.481Z,100854.50
2023-02-03T12:13:57.811Z,100834.25
2023-02-03T12:16:31.259Z,100833.09
2023-02-03T12:19:03.895Z,100828.72
2023-02-03T12:21:43.527Z,100816.91
2023-02-03T12:24:22.285Z,100814.00
2023-02-03T12:26:53.945Z,100806.50
2023-02-03T12:29:38.679Z,100803.56
2023-02-03T12:32:22.237Z,100797.66
2023-02-03T12:35:07.516Z,100791.66
2023-02-03T12:37:55.435Z,100786.69
2023-02-03T12:40:25.068Z,100783.00
2023-02-03T12:43:04.500Z,100769.16
2023-02-03T12:45:35.003Z,100760.91
2023-02-03T12:48:12.118Z,100770.41
2023-02-03T12:50:46.048Z,100755.84
2023-02-03T12:53:31.031Z,100741.50
2023-02-03T12:56:02.865Z,100737.50
2023-02-03T12:58:38.137Z,100729.19
2023-02-03T13:01:23.528Z,100729.81
2023-02-03T13:04:06.521Z,100708.06
2023-02-03T13:06:51.284Z,100694.13
2023-02-03T13:09:50.144Z,100683.91
2023-02-03T13:12:19.753Z,100679.16
2023-02-03T13:14:54.527Z,100672.31
2023-02-03T13:17:27.885Z,100664.13
2023-02-03T13:19:59.197Z,100666.66
2023-02-03T13:22:26.648Z,100661.88
2023-02-03T13:25:09.530Z,100665.25
2023-02-03T13:27:58.062Z,100661.09
2023-02-03T13:31:00.196Z,100633.72
2023-02-03T13:33:44.858Z,100645.44
2023-02-03T13:36:39.856Z,100640.84
2023-02-03T13:39:15.555Z,100628.16
2023-02-03T13:41:52.125Z,100623.56
2023-02-03T13:44:28.978Z,100610.75
2023-02-03T13:46:59.081Z,100600.72
2023-02-03T13:49:32.127Z,100597.13
2023-02-03T13:51:59.143Z,100590.47
2023-02-03T13:54:30.367Z,100583.53
2023-02-03T13:57:02.761Z,100575.06
2023-02-03T13:59:31.813Z,100566.72
2023-02-03T14:02:20.094Z,100558.41
2023-02-03T14:04:46.738Z,100560.88
2023-02-03T14:07:33.394Z,100558.94
2023-02-03T14:10:26.420Z,100548.06
2023-02-03T14:12:59.104Z,100546.50
2023-02-03T14:15:26.191Z,100532.09
2023-02-03T14:17:52.833Z,100521.50
2023-02-03T14:20:25.378Z,100515.63
2023-02-03T14:22:59.485Z,100516.94
2023-02-03T14:25:27.994Z,100523.94
2023-02-03T14:28:04.139Z,100517.63
2023-02-03T14:30:31.168Z,100505.38
2023-02-03T14:33:00.007Z,100494.16
2023-02-03T14:35:36.912Z,100496.97
2023-02-03T14:38:15.751Z,100483.53
2023-02-03T14:40:56.950Z,100485.78
2023-02-03T14:43:53.579Z,100473.53
2023-02-03T14:46:34.125Z,100460.13
2023-02-03T14:49:27.013Z,100459.81
2023-02-03T14:51:54.433Z,100455.94
2023-02-03T14:55:02.051Z,100458.50
2023-02-03T14:57:49.092Z,100449.38
2023-02-03T15:00:26.445Z,100440.88
2023-02-03T15:03:11.313Z,100442.19
2023-02-03T15:05:44.766Z,100430.22
2023-02-03T15:08:35.920Z,100436.94
2023-02-03T15:11:43.031Z,100432.69
2023-02-03T15:14:19.950Z,100422.69
2023-02-03T15:16:50.981Z,100419.28
2023-02-03T15:19:19.264Z,100414.72
2023-02-03T15:21:46.512Z,100409.97
2023-02-03T15:24:24.096Z,100409.63
2023-02-03T15:26:56.040Z,100399.13
2023-02-03T15:29:27.111Z,100403.22
2023-02-03T15:32:06.342Z,100405.19
2023-02-03T15:34:47.565Z,100407.66
2023-02-03T15:37:26.267Z,100420.50
2023-02-03T15:40:15.933Z,100406.75
2023-02-03T15:42:47.702Z,100398.59
2023-02-03T15:45:14.203Z,100405.06
2023-02-03T15:47:51.944Z,100407.59
2023-02-03T15:50:24.311Z,100397.97
2023-02-03T15:52:53.686Z,100380.66
2023-02-03T15:55:31.075Z,100367.84
2023-02-03T15:57:58.031Z,100365.56
2023-02-03T16:00:56.051Z,100367.25
2023-02-03T16:03:36.624Z,100368.66
2023-02-03T16:06:30.850Z,100372.59
2023-02-03T16:08:59.628Z,100363.59
2023-02-03T16:11:38.764Z,100364.09
2023-02-03T16:14:12.116Z,100363.44
2023-02-03T16:17:04.930Z,100357.66
2023-02-03T16:19:34.973Z,100340.66
2023-02-03T16:22:02.056Z,100340.66
2023-02-03T16:24:46.182Z,100329.44
2023-02-03T16:27:33.489Z,100326.75
2023-02-03T16:30:24.547Z,100327.59
2023-02-03T16:33:28.989Z,100333.47
2023-02-03T16:36:15.886Z,100322.09
2023-02-03T16:39:05.223Z,100332.47
2023-02-03T16:41:51.319Z,100317.69
2023-02-03T16:44:36.836Z,100307.00
2023-02-03T16:47:23.150Z,100310.75
2023-02-03T16:50:08.325Z,100301.25
2023-02-03T16:52:34.891Z,100296.06
2023-02-03T16:55:01.424Z,100299.63
2023-02-03T16:57:28.091Z,100303.81
2023-02-03T16:59:55.112Z,100304.09
2023-02-03T17:02:22.220Z,100297.22
2023-02-03T17:04:48.811Z,100298.53
2023-02-03T17:07:15.333Z,100288.66
2023-02-03T17:09:42.432Z,100282.38
2023-02-03T17:12:09.022Z,100278.31
2023-02-03T17:14:35.586Z,100284.66
2023-02-03T17:17:02.176Z,100281.63
2023-02-03T17:19:28.697Z,100286.66
2023-02-03T17:21:56.089Z,100276.69
2023-02-03T17:24:22.689Z,100279.06
2023-02-03T17:26:50.434Z,100277.59
2023-02-03T17:29:17.041Z,100275.41
2023-02-03T17:31:43.694Z,100265.63
2023-02-03T17:34:10.326Z,100263.31
2023-02-03T17:36:36.904Z,100255.34
2023-02-03T17:55:32.314Z,100202.84
2023-02-03T17:57:59.458Z,100203.72
2023-02-03T18:00:27.822Z,100189.59
2023-02-03T18:02:54.572Z,100198.50
2023-02-03T18:05:21.190Z,100194.06
2023-02-03T18:10:15.502Z,100195.03
2023-02-03T18:12:42.472Z,100200.97
2023-02-03T18:15:09.433Z,100192.84
2023-02-03T18:17:36.083Z,100196.38
2023-02-03T18:20:04.007Z,100185.38
2023-02-03T18:22:30.691Z,100191.78
2023-02-03T18:24:57.249Z,100181.03
2023-02-03T18:27:23.848Z,100177.72
2023-02-03T18:29:50.441Z,100181.19
2023-02-03T18:32:17.148Z,100178.22
2023-02-03T18:34:44.238Z,100173.91
2023-02-03T18:37:11.486Z,100168.16
2023-02-03T18:39:38.238Z,100171.59
2023-02-03T18:42:07.599Z,100177.69
2023-02-03T18:44:37.265Z,100178.22
2023-02-03T18:47:09.728Z,100175.81
2023-02-03T18:49:43.433Z,100164.53
2023-02-03T18:52:17.011Z,100155.09
2023-02-03T18:54:44.251Z,100139.53
2023-02-03T18:57:18.089Z,100138.72
2023-02-03T18:59:51.557Z,100130.47
2023-02-03T19:02:18.223Z,100124.09
2023-02-03T19:04:46.590Z,100118.28
2023-02-03T19:07:15.926Z,100117.78
2023-02-03T19:09:44.796Z,100126.28
2023-02-03T19:12:12.194Z,100124.19
2023-02-03T19:14:40.922Z,100127.81
2023-02-03T19:17:08.490Z,100123.19
2023-02-03T19:19:36.662Z,100127.44
2023-02-03T19:22:04.588Z,100116.47
2023-02-03T19:24:33.353Z,100115.31
2023-02-03T19:27:00.567Z,100100.00
2023-02-03T19:29:27.808Z,100079.25
2023-02-03T19:31:54.525Z,100081.94
2023-02-03T19:34:21.570Z,100072.88
2023-02-03T19:36:48.479Z,100062.97
2023-02-03T19:39:15.356Z,100054.13
2023-02-03T19:41:44.065Z,100049.59
2023-02-03T19:44:10.823Z,100047.94
2023-02-03T19:46:37.614Z,100048.00
2023-02-03T19:49:13.262Z,100044.91
2023-02-03T19:51:40.731Z,100056.56
2023-02-03T19:54:10.313Z,100056.63
2023-02-03T19:56:39.192Z,100068.56
2023-02-03T19:59:05.864Z,100065.03
2023-02-03T20:01:32.744Z,100061.84
2023-02-03T20:04:00.047Z,100069.22
2023-02-03T20:06:28.458Z,100059.66
2023-02-03T20:08:56.621Z,100051.69
2023-02-03T20:11:23.242Z,100056.66
2023-02-03T20:13:50.923Z,100043.28
2023-02-03T20:16:17.867Z,100033.41
2023-02-03T20:18:44.530Z,100036.50
2023-02-03T20:21:11.554Z,100030.09
2023-02-03T20:23:38.245Z,100024.13
2023-02-03T20:26:06.592Z,100019.63
2023-02-03T20:28:33.218Z,100005.50
2023-02-03T20:31:02.267Z,100013.34
2023-02-03T20:33:32.529Z,100006.78
2023-02-03T20:35:59.350Z,100017.06
2023-02-03T20:38:26.122Z,100005.44
2023-02-03T20:40:52.912Z,99994.34
2023-02-03T20:43:24.653Z,99991.34
2023-02-03T20:45:52.327Z,99989.75
2023-02-03T20:48:22.255Z,99991.25
2023-02-03T20:50:50.597Z,99991.16
2023-02-03T20:53:21.235Z,99993.03
2023-02-03T20:55:48.914Z,99987.59
2023-02-03T20:58:17.205Z,99997.56
2023-02-03T21:00:44.697Z,99995.56
2023-02-03T21:03:34.406Z,100007.84
2023-02-03T21:06:01.524Z,99988.41
2023-02-03T21:08:28.157Z,99988.34
2023-02-03T21:10:55.213Z,99977.63
2023-02-03T21:13:24.565Z,99987.28
2023-02-03T21:15:53.602Z,99985.47
2023-02-03T21:18:32.554Z,99993.19
2023-02-03T21:21:00.042Z,99973.00
2023-02-03T21:23:36.489Z,99963.34
2023-02-03T21:26:23.258Z,99968.06
2023-02-03T21:28:52.418Z,99968.81
2023-02-03T21:31:29.432Z,99963.03
2023-02-03T21:33:58.622Z,99961.72
2023-02-03T21:36:37.750Z,99961.88
2023-02-03T21:39:25.282Z,99962.78
2023-02-03T21:41:52.285Z,99970.84
2023-02-03T21:44:38.283Z,99979.22
2023-02-03T21:47:11.509Z,99982.56
2023-02-03T21:49:38.069Z,99968.81
2023-02-03T21:52:04.665Z,99972.03
2023-02-03T21:54:34.357Z,99958.31
2023-02-03T21:57:01.346Z,99977.97
2023-02-03T21:59:37.321Z,99978.03
2023-02-03T22:02:36.253Z,99958.47
2023-02-03T22:05:12.339Z,99947.06
2023-02-03T22:07:38.879Z,99965.44
2023-02-03T22:10:05.807Z,99956.66
2023-02-03T22:12:32.483Z,99963.41
2023-02-03T22:14:58.992Z,99962.28
2023-02-03T22:17:25.556Z,99957.06
2023-02-03T22:19:52.126Z,99967.75
2023-02-03T22:22:18.693Z,99969.41
2023-02-03T22:24:45.285Z,99966.66
2023-02-03T22:27:11.861Z,99984.72
2023-02-03T22:29:38.569Z,99993.75
2023-02-03T22:32:05.194Z,99987.53
2023-02-03T22:34:32.185Z,99983.28
2023-02-03T22:36:58.739Z,99981.44
2023-02-03T22:39:25.301Z,99973.28
2023-02-03T22:41:51.848Z,99965.13
2023-02-03T22:44:18.911Z,99969.81
2023-02-03T22:46:45.433Z,99981.44
2023-02-03T22:49:11.994Z,99985.06
2023-02-03T22:51:38.589Z,99986.91
2023-02-03T22:54:05.245Z,99988.66
2023-02-03T22:56:31.775Z,99982.03
2023-02-03T22:58:58.328Z,99978.38
2023-02-03T23:01:24.886Z,99974.97
2023-02-03T23:03:51.399Z,99981.22
2023-02-03T23:06:17.962Z,99979.09
2023-02-03T23:08:44.674Z,99983.94
2023-02-03T23:11:11.233Z,99990.41
2023-02-03T23:13:37.762Z,99996.66
2023-02-03T23:16:04.691Z,99995.00
2023-02-03T23:18:31.270Z,99996.22
2023-02-03T23:20:57.936Z,99995.66
2023-02-03T23:23:24.554Z,100000.22
2023-02-03T23:25:51.107Z,99995.78
2023-02-03T23:28:17.802Z,100003.16
2023-02-03T23:30:44.549Z,100009.47
2023-02-03T23:33:11.141Z,100003.59
2023-02-03T23:35:46.830Z,99989.03
2023-02-03T23:38:15.496Z,99990.84
2023-02-03T23:40:42.890Z,99989.34
2023-02-03T23:43:09.712Z,99984.00
2023-02-03T23:45:36.309Z,99974.13
2023-02-03T23:48:03.126Z,99981.47
2023-02-03T23:50:30.037Z,99984.38
2023-02-03T23:52:56.825Z,99980.69
2023-02-03T23:55:23.803Z,99974.47
2023-02-03T23:57:51.104Z,99984.81
